sensor_id;sensor_type;location;lat;lon;timestamp;temperature;humidity
2162;DHT22;1087;50.226;8.682;2023-03-03T00:00:27;6.10;99.90
2162;DHT22;1087;50.226;8.682;2023-03-03T00:02:53;6.20;99.90
2162;DHT22;1087;50.226;8.682;2023-03-03T00:05:18;6.10;99.90
2162;DHT22;1087;50.226;8.682;2023-03-03T00:07:44;6.10;99.90
2162;DHT22;1087;50.226;8.682;2023-03-03T00:10:11;6.00;99.90
2162;DHT22;1087;50.226;8.682;2023-03-03T00:12:48;5.90;99.90
2162;DHT22;1087;50.226;8.682;2023-03-03T00:15:17;6.00;99.90
2162;DHT22;1087;50.226;8.682;2023-03-03T00:17:43;5.90;99.90
2162;DHT22;1087;50.226;8.682;2023-03-03T00:20:35;5.90;99.90
2162;DHT22;1087;50.226;8.682;2023-03-03T00:23:15;5.90;99.90
2162;DHT22;1087;50.226;8.682;2023-03-03T00:25:43;5.90;99.90
2162;DHT22;1087;50.226;8.682;2023-03-03T00:28:21;5.90;99.90
2162;DHT22;1087;50.226;8.682;2023-03-03T00:30:48;5.90;99.90
2162;DHT22;1087;50.226;8.682;2023-03-03T00:33:25;5.80;99.90
2162;DHT22;1087;50.226;8.682;2023-03-03T00:38:34;5.80;99.90
2162;DHT22;1087;50.226;8.682;2023-03-03T00:41:01;5.70;99.90
2162;DHT22;1087;50.226;8.682;2023-03-03T00:43:34;5.70;99.90
2162;DHT22;1087;50.226;8.682;2023-03-03T00:46:00;5.70;99.90
2162;DHT22;1087;50.226;8.682;2023-03-03T00:48:28;5.80;99.90
2162;DHT22;1087;50.226;8.682;2023-03-03T00:50:59;5.80;99.90
2162;DHT22;1087;50.226;8.682;2023-03-03T00:53:27;5.80;99.90
2162;DHT22;1087;50.226;8.682;2023-03-03T00:55:53;5.90;99.90
2162;DHT22;1087;50.226;8.682;2023-03-03T00:58:20;5.90;99.90
2162;DHT22;1087;50.226;8.682;2023-03-03T01:00:47;5.80;99.90
2162;DHT22;1087;50.226;8.682;2023-03-03T01:03:16;5.70;99.90
2162;DHT22;1087;50.226;8.682;2023-03-03T01:05:42;5.80;99.90
2162;DHT22;1087;50.226;8.682;2023-03-03T01:08:08;5.90;99.90
2162;DHT22;1087;50.226;8.682;2023-03-03T01:10:38;5.90;99.90
2162;DHT22;1087;50.226;8.682;2023-03-03T01:13:05;5.70;99.90
2162;DHT22;1087;50.226;8.682;2023-03-03T01:15:31;5.70;99.90
2162;DHT22;1087;50.226;8.682;2023-03-03T01:17:57;5.80;99.90
2162;DHT22;1087;50.226;8.682;2023-03-03T01:20:23;5.80;99.90
2162;DHT22;1087;50.226;8.682;2023-03-03T01:22:49;5.90;99.90
2162;DHT22;1087;50.226;8.682;2023-03-03T01:25:15;5.80;99.90
2162;DHT22;1087;50.226;8.682;2023-03-03T01:27:40;5.90;99.90
2162;DHT22;1087;50.226;8.682;2023-03-03T01:30:07;5.90;99.90
2162;DHT22;1087;50.226;8.682;2023-03-03T01:32:33;5.90;99.90
2162;DHT22;1087;50.226;8.682;2023-03-03T01:34:59;5.90;99.90
2162;DHT22;1087;50.226;8.682;2023-03-03T01:37:24;5.90;99.90
2162;DHT22;1087;50.226;8.682;2023-03-03T01:39:51;5.90;99.90
2162;DHT22;1087;50.226;8.682;2023-03-03T01:42:17;5.80;99.90
2162;DHT22;1087;50.226;8.682;2023-03-03T01:44:43;5.80;99.90
2162;DHT22;1087;50.226;8.682;2023-03-03T01:47:26;5.90;99.90
2162;DHT22;1087;50.226;8.682;2023-03-03T01:50:05;5.90;99.90
2162;DHT22;1087;50.226;8.682;2023-03-03T01:52:38;5.80;99.90
2162;DHT22;1087;50.226;8.682;2023-03-03T01:55:15;5.80;99.90
2162;DHT22;1087;50.226;8.682;2023-03-03T01:57:45;5.90;99.90
2162;DHT22;1087;50.226;8.682;2023-03-03T02:00:13;5.90;99.90
2162;DHT22;1087;50.226;8.682;2023-03-03T02:02:40;5.70;99.90
2162;DHT22;1087;50.226;8.682;2023-03-03T02:05:07;5.70;99.90
2162;DHT22;1087;50.226;8.682;2023-03-03T02:07:33;5.70;99.90
2162;DHT22;1087;50.226;8.682;2023-03-03T02:10:26;5.70;99.90
2162;DHT22;1087;50.226;8.682;2023-03-03T02:12:55;5.70;99.90
2162;DHT22;1087;50.226;8.682;2023-03-03T02:15:30;5.60;99.90
2162;DHT22;1087;50.226;8.682;2023-03-03T02:17:59;5.60;99.90
2162;DHT22;1087;50.226;8.682;2023-03-03T02:20:35;5.60;99.90
2162;DHT22;1087;50.226;8.682;2023-03-03T02:25:40;5.50;99.90
2162;DHT22;1087;50.226;8.682;2023-03-03T02:28:08;5.50;99.90
2162;DHT22;1087;50.226;8.682;2023-03-03T02:30:37;5.50;99.90
2162;DHT22;1087;50.226;8.682;2023-03-03T02:33:03;5.50;99.90
2162;DHT22;1087;50.226;8.682;2023-03-03T02:35:34;5.50;99.90
2162;DHT22;1087;50.226;8.682;2023-03-03T02:40:39;5.60;99.90
2162;DHT22;1087;50.226;8.682;2023-03-03T02:43:08;5.50;99.90
2162;DHT22;1087;50.226;8.682;2023-03-03T02:45:43;5.50;99.90
2162;DHT22;1087;50.226;8.682;2023-03-03T02:48:09;5.50;99.90
2162;DHT22;1087;50.226;8.682;2023-03-03T02:50:35;5.40;99.90
2162;DHT22;1087;50.226;8.682;2023-03-03T02:53:01;5.40;99.90
2162;DHT22;1087;50.226;8.682;2023-03-03T02:55:26;5.30;99.90
2162;DHT22;1087;50.226;8.682;2023-03-03T02:57:52;5.30;99.90
2162;DHT22;1087;50.226;8.682;2023-03-03T03:00:17;5.30;99.90
2162;DHT22;1087;50.226;8.682;2023-03-03T03:02:43;5.20;99.90
2162;DHT22;1087;50.226;8.682;2023-03-03T03:05:09;5.20;99.90
2162;DHT22;1087;50.226;8.682;2023-03-03T03:07:34;5.30;99.90
2162;DHT22;1087;50.226;8.682;2023-03-03T03:10:00;5.30;99.90
2162;DHT22;1087;50.226;8.682;2023-03-03T03:12:25;5.20;99.90
2162;DHT22;1087;50.226;8.682;2023-03-03T03:14:51;5.10;99.90
2162;DHT22;1087;50.226;8.682;2023-03-03T03:17:16;4.90;99.90
2162;DHT22;1087;50.226;8.682;2023-03-03T03:19:42;4.90;99.90
2162;DHT22;1087;50.226;8.682;2023-03-03T03:22:07;4.90;99.90
2162;DHT22;1087;50.226;8.682;2023-03-03T03:24:33;4.90;99.90
2162;DHT22;1087;50.226;8.682;2023-03-03T03:26:58;5.00;99.90
2162;DHT22;1087;50.226;8.682;2023-03-03T03:29:24;5.10;99.90
2162;DHT22;1087;50.226;8.682;2023-03-03T03:31:49;5.10;99.90
2162;DHT22;1087;50.226;8.682;2023-03-03T03:34:15;5.10;99.90
2162;DHT22;1087;50.226;8.682;2023-03-03T03:36:40;5.10;99.90
2162;DHT22;1087;50.226;8.682;2023-03-03T03:39:07;5.00;99.90
2162;DHT22;1087;50.226;8.682;2023-03-03T03:41:32;5.00;99.90
2162;DHT22;1087;50.226;8.682;2023-03-03T03:43:58;4.90;99.90
2162;DHT22;1087;50.226;8.682;2023-03-03T03:46:23;4.90;99.90
2162;DHT22;1087;50.226;8.682;2023-03-03T03:48:49;4.80;99.90
2162;DHT22;1087;50.226;8.682;2023-03-03T03:51:14;4.70;99.90
2162;DHT22;1087;50.226;8.682;2023-03-03T03:53:40;4.70;99.90
2162;DHT22;1087;50.226;8.682;2023-03-03T03:56:06;4.70;99.90
2162;DHT22;1087;50.226;8.682;2023-03-03T03:58:31;4.60;99.90
2162;DHT22;1087;50.226;8.682;2023-03-03T04:01:05;4.60;99.90
2162;DHT22;1087;50.226;8.682;2023-03-03T04:03:31;4.60;99.90
2162;DHT22;1087;50.226;8.682;2023-03-03T04:05:56;4.70;99.90
2162;DHT22;1087;50.226;8.682;2023-03-03T04:08:22;4.70;99.90
2162;DHT22;1087;50.226;8.682;2023-03-03T04:10:47;4.70;99.90
2162;DHT22;1087;50.226;8.682;2023-03-03T04:13:13;4.70;99.90
2162;DHT22;1087;50.226;8.682;2023-03-03T04:15:38;4.60;99.90
2162;DHT22;1087;50.226;8.682;2023-03-03T04:18:04;4.60;99.90
2162;DHT22;1087;50.226;8.682;2023-03-03T04:20:29;4.60;99.90
2162;DHT22;1087;50.226;8.682;2023-03-03T04:22:55;4.70;99.90
2162;DHT22;1087;50.226;8.682;2023-03-03T04:25:21;4.70;99.90
2162;DHT22;1087;50.226;8.682;2023-03-03T04:27:47;4.70;99.90
2162;DHT22;1087;50.226;8.682;2023-03-03T04:30:14;4.60;99.90
2162;DHT22;1087;50.226;8.682;2023-03-03T04:32:40;4.70;99.90
2162;DHT22;1087;50.226;8.682;2023-03-03T04:35:06;4.50;99.90
2162;DHT22;1087;50.226;8.682;2023-03-03T04:37:32;4.60;99.90
2162;DHT22;1087;50.226;8.682;2023-03-03T04:39:58;4.60;99.90
2162;DHT22;1087;50.226;8.682;2023-03-03T04:42:23;4.60;99.90
2162;DHT22;1087;50.226;8.682;2023-03-03T04:44:49;4.60;99.90
2162;DHT22;1087;50.226;8.682;2023-03-03T04:47:14;4.60;99.90
2162;DHT22;1087;50.226;8.682;2023-03-03T04:49:40;4.60;99.90
2162;DHT22;1087;50.226;8.682;2023-03-03T04:52:05;4.60;99.90
2162;DHT22;1087;50.226;8.682;2023-03-03T04:54:31;4.60;99.90
2162;DHT22;1087;50.226;8.682;2023-03-03T04:56:56;4.50;99.90
2162;DHT22;1087;50.226;8.682;2023-03-03T04:59:22;4.50;99.90
2162;DHT22;1087;50.226;8.682;2023-03-03T05:01:49;4.50;99.90
2162;DHT22;1087;50.226;8.682;2023-03-03T05:04:15;4.40;99.90
2162;DHT22;1087;50.226;8.682;2023-03-03T05:06:40;4.20;99.90
2162;DHT22;1087;50.226;8.682;2023-03-03T05:09:06;4.00;99.90
2162;DHT22;1087;50.226;8.682;2023-03-03T05:11:32;3.90;99.90
2162;DHT22;1087;50.226;8.682;2023-03-03T05:13:57;3.80;99.90
2162;DHT22;1087;50.226;8.682;2023-03-03T05:16:23;3.60;99.90
2162;DHT22;1087;50.226;8.682;2023-03-03T05:18:48;3.50;99.90
2162;DHT22;1087;50.226;8.682;2023-03-03T05:21:14;3.40;99.90
2162;DHT22;1087;50.226;8.682;2023-03-03T05:23:39;3.10;99.90
2162;DHT22;1087;50.226;8.682;2023-03-03T05:26:05;3.20;99.90
2162;DHT22;1087;50.226;8.682;2023-03-03T05:28:32;3.20;99.90
2162;DHT22;1087;50.226;8.682;2023-03-03T05:30:57;3.30;99.90
2162;DHT22;1087;50.226;8.682;2023-03-03T05:33:23;3.50;99.90
2162;DHT22;1087;50.226;8.682;2023-03-03T05:35:53;3.50;99.90
2162;DHT22;1087;50.226;8.682;2023-03-03T05:38:19;3.40;99.90
2162;DHT22;1087;50.226;8.682;2023-03-03T05:40:46;3.20;99.90
2162;DHT22;1087;50.226;8.682;2023-03-03T05:43:11;3.20;99.90
2162;DHT22;1087;50.226;8.682;2023-03-03T05:45:37;3.20;99.90
2162;DHT22;1087;50.226;8.682;2023-03-03T05:48:02;3.30;99.90
2162;DHT22;1087;50.226;8.682;2023-03-03T05:50:29;3.40;99.90
2162;DHT22;1087;50.226;8.682;2023-03-03T05:52:55;3.30;99.90
2162;DHT22;1087;50.226;8.682;2023-03-03T05:55:20;3.30;99.90
2162;DHT22;1087;50.226;8.682;2023-03-03T05:57:46;3.20;99.90
2162;DHT22;1087;50.226;8.682;2023-03-03T06:00:13;3.40;99.90
2162;DHT22;1087;50.226;8.682;2023-03-03T06:02:39;3.30;99.90
2162;DHT22;1087;50.226;8.682;2023-03-03T06:05:05;3.40;99.90
2162;DHT22;1087;50.226;8.682;2023-03-03T06:07:31;3.30;99.90
2162;DHT22;1087;50.226;8.682;2023-03-03T06:09:56;3.30;99.90
2162;DHT22;1087;50.226;8.682;2023-03-03T06:12:22;3.20;99.90
2162;DHT22;1087;50.226;8.682;2023-03-03T06:14:47;3.20;99.90
2162;DHT22;1087;50.226;8.682;2023-03-03T06:17:13;3.30;99.90
2162;DHT22;1087;50.226;8.682;2023-03-03T06:19:38;3.30;99.90
2162;DHT22;1087;50.226;8.682;2023-03-03T06:22:06;3.40;99.90
2162;DHT22;1087;50.226;8.682;2023-03-03T06:24:31;3.30;99.90
2162;DHT22;1087;50.226;8.682;2023-03-03T06:26:57;3.30;99.90
2162;DHT22;1087;50.226;8.682;2023-03-03T06:29:23;3.20;99.90
2162;DHT22;1087;50.226;8.682;2023-03-03T06:31:49;3.00;99.90
2162;DHT22;1087;50.226;8.682;2023-03-03T06:34:14;3.10;99.90
2162;DHT22;1087;50.226;8.682;2023-03-03T06:36:40;3.00;99.90
2162;DHT22;1087;50.226;8.682;2023-03-03T06:39:05;2.90;99.90
2162;DHT22;1087;50.226;8.682;2023-03-03T06:41:31;3.00;99.90
2162;DHT22;1087;50.226;8.682;2023-03-03T06:43:56;3.00;99.90
2162;DHT22;1087;50.226;8.682;2023-03-03T06:46:22;3.00;99.90
2162;DHT22;1087;50.226;8.682;2023-03-03T06:48:48;3.10;99.90
2162;DHT22;1087;50.226;8.682;2023-03-03T06:51:26;2.70;99.90
2162;DHT22;1087;50.226;8.682;2023-03-03T06:53:55;2.80;99.90
2162;DHT22;1087;50.226;8.682;2023-03-03T06:56:23;2.90;99.90
2162;DHT22;1087;50.226;8.682;2023-03-03T06:58:53;2.80;99.90
2162;DHT22;1087;50.226;8.682;2023-03-03T07:01:18;3.00;99.90
2162;DHT22;1087;50.226;8.682;2023-03-03T07:03:44;3.00;99.90
2162;DHT22;1087;50.226;8.682;2023-03-03T07:08:43;3.10;99.90
2162;DHT22;1087;50.226;8.682;2023-03-03T07:11:15;3.00;99.90
2162;DHT22;1087;50.226;8.682;2023-03-03T07:13:52;3.20;99.90
2162;DHT22;1087;50.226;8.682;2023-03-03T07:16:19;2.90;99.90
2162;DHT22;1087;50.226;8.682;2023-03-03T07:19:00;3.00;99.90
2162;DHT22;1087;50.226;8.682;2023-03-03T07:21:33;3.30;99.90
2162;DHT22;1087;50.226;8.682;2023-03-03T07:24:00;3.40;99.90
2162;DHT22;1087;50.226;8.682;2023-03-03T07:26:32;3.30;99.90
2162;DHT22;1087;50.226;8.682;2023-03-03T07:29:21;3.20;99.90
2162;DHT22;1087;50.226;8.682;2023-03-03T07:31:49;3.10;99.90
2162;DHT22;1087;50.226;8.682;2023-03-03T07:34:23;3.20;99.90
2162;DHT22;1087;50.226;8.682;2023-03-03T07:36:51;3.00;99.90
2162;DHT22;1087;50.226;8.682;2023-03-03T07:39:25;3.10;99.90
2162;DHT22;1087;50.226;8.682;2023-03-03T07:42:14;2.90;99.90
2162;DHT22;1087;50.226;8.682;2023-03-03T07:44:41;3.00;99.90
2162;DHT22;1087;50.226;8.682;2023-03-03T07:47:30;2.90;99.90
2162;DHT22;1087;50.226;8.682;2023-03-03T07:50:00;3.00;99.90
2162;DHT22;1087;50.226;8.682;2023-03-03T07:52:43;3.10;99.90
2162;DHT22;1087;50.226;8.682;2023-03-03T07:55:25;3.20;99.90
2162;DHT22;1087;50.226;8.682;2023-03-03T07:57:53;3.30;99.90
2162;DHT22;1087;50.226;8.682;2023-03-03T08:02:48;3.30;99.90
2162;DHT22;1087;50.226;8.682;2023-03-03T08:05:39;3.40;99.90
2162;DHT22;1087;50.226;8.682;2023-03-03T08:08:26;3.50;99.90
2162;DHT22;1087;50.226;8.682;2023-03-03T08:10:57;3.50;99.90
2162;DHT22;1087;50.226;8.682;2023-03-03T08:13:40;3.50;99.90
2162;DHT22;1087;50.226;8.682;2023-03-03T08:18:39;3.30;99.90
2162;DHT22;1087;50.226;8.682;2023-03-03T08:23:41;3.20;99.90
2162;DHT22;1087;50.226;8.682;2023-03-03T08:26:07;3.20;99.90
2162;DHT22;1087;50.226;8.682;2023-03-03T08:28:33;3.30;99.90
2162;DHT22;1087;50.226;8.682;2023-03-03T08:30:59;3.40;99.90
2162;DHT22;1087;50.226;8.682;2023-03-03T08:33:24;3.20;99.90
2162;DHT22;1087;50.226;8.682;2023-03-03T08:35:50;3.40;99.90
2162;DHT22;1087;50.226;8.682;2023-03-03T08:38:19;3.50;99.90
2162;DHT22;1087;50.226;8.682;2023-03-03T08:40:45;3.50;99.90
2162;DHT22;1087;50.226;8.682;2023-03-03T08:43:11;3.60;99.90
2162;DHT22;1087;50.226;8.682;2023-03-03T08:45:46;3.70;99.90
2162;DHT22;1087;50.226;8.682;2023-03-03T08:48:12;3.80;99.90
2162;DHT22;1087;50.226;8.682;2023-03-03T08:50:38;3.90;99.90
2162;DHT22;1087;50.226;8.682;2023-03-03T08:53:04;4.00;99.90
2162;DHT22;1087;50.226;8.682;2023-03-03T08:55:30;3.90;99.90
2162;DHT22;1087;50.226;8.682;2023-03-03T08:57:56;3.80;99.90
2162;DHT22;1087;50.226;8.682;2023-03-03T09:00:22;3.70;99.90
2162;DHT22;1087;50.226;8.682;2023-03-03T09:02:48;3.70;99.90
2162;DHT22;1087;50.226;8.682;2023-03-03T09:05:16;3.60;99.90
2162;DHT22;1087;50.226;8.682;2023-03-03T09:07:43;3.50;99.90
2162;DHT22;1087;50.226;8.682;2023-03-03T09:10:11;3.60;99.90
2162;DHT22;1087;50.226;8.682;2023-03-03T09:12:43;3.80;99.90
2162;DHT22;1087;50.226;8.682;2023-03-03T09:15:16;3.80;99.90
2162;DHT22;1087;50.226;8.682;2023-03-03T09:17:43;3.80;99.90
2162;DHT22;1087;50.226;8.682;2023-03-03T09:20:39;3.90;99.90
2162;DHT22;1087;50.226;8.682;2023-03-03T09:26:21;4.20;99.90
2162;DHT22;1087;50.226;8.682;2023-03-03T09:28:48;4.20;99.90
2162;DHT22;1087;50.226;8.682;2023-03-03T09:31:45;4.30;99.90
2162;DHT22;1087;50.226;8.682;2023-03-03T09:34:38;4.20;99.90
2162;DHT22;1087;50.226;8.682;2023-03-03T09:37:33;4.20;99.90
2162;DHT22;1087;50.226;8.682;2023-03-03T09:40:26;4.20;99.90
2162;DHT22;1087;50.226;8.682;2023-03-03T09:43:03;4.30;99.90
2162;DHT22;1087;50.226;8.682;2023-03-03T09:48:44;4.20;99.90
2162;DHT22;1087;50.226;8.682;2023-03-03T09:51:34;4.40;99.90
2162;DHT22;1087;50.226;8.682;2023-03-03T09:54:27;4.50;99.90
2162;DHT22;1087;50.226;8.682;2023-03-03T09:57:13;4.60;99.90
2162;DHT22;1087;50.226;8.682;2023-03-03T09:59:55;4.70;99.90
2162;DHT22;1087;50.226;8.682;2023-03-03T10:02:42;4.70;99.90
2162;DHT22;1087;50.226;8.682;2023-03-03T10:05:21;5.00;99.90
2162;DHT22;1087;50.226;8.682;2023-03-03T10:16:21;5.20;99.90
2162;DHT22;1087;50.226;8.682;2023-03-03T10:18:54;5.30;99.90
2162;DHT22;1087;50.226;8.682;2023-03-03T10:21:48;5.40;99.90
2162;DHT22;1087;50.226;8.682;2023-03-03T10:24:46;5.30;99.90
2162;DHT22;1087;50.226;8.682;2023-03-03T10:27:30;5.10;99.90
2162;DHT22;1087;50.226;8.682;2023-03-03T10:40:57;5.20;99.90
2162;DHT22;1087;50.226;8.682;2023-03-03T10:44:00;5.10;99.90
2162;DHT22;1087;50.226;8.682;2023-03-03T10:58:10;5.40;99.90
2162;DHT22;1087;50.226;8.682;2023-03-03T11:06:12;5.70;99.90
2162;DHT22;1087;50.226;8.682;2023-03-03T11:08:43;5.70;99.90
2162;DHT22;1087;50.226;8.682;2023-03-03T11:14:17;5.90;99.90
2162;DHT22;1087;50.226;8.682;2023-03-03T11:16:56;6.00;99.90
2162;DHT22;1087;50.226;8.682;2023-03-03T11:19:34;6.00;99.90
2162;DHT22;1087;50.226;8.682;2023-03-03T11:33:39;6.20;99.90
2162;DHT22;1087;50.226;8.682;2023-03-03T11:38:58;6.40;99.90
2162;DHT22;1087;50.226;8.682;2023-03-03T11:44:36;6.50;99.90
2162;DHT22;1087;50.226;8.682;2023-03-03T11:52:23;6.30;99.90
2162;DHT22;1087;50.226;8.682;2023-03-03T12:03:23;6.60;99.90
2162;DHT22;1087;50.226;8.682;2023-03-03T12:19:30;7.00;99.90
2162;DHT22;1087;50.226;8.682;2023-03-03T12:27:22;7.10;99.90
2162;DHT22;1087;50.226;8.682;2023-03-03T12:33:09;6.90;99.90
2162;DHT22;1087;50.226;8.682;2023-03-03T12:41:20;7.00;99.90
2162;DHT22;1087;50.226;8.682;2023-03-03T12:43:55;7.00;99.90
2162;DHT22;1087;50.226;8.682;2023-03-03T12:50:19;7.00;99.90
2162;DHT22;1087;50.226;8.682;2023-03-03T13:00:59;7.10;99.90
2162;DHT22;1087;50.226;8.682;2023-03-03T13:06:52;7.10;99.90
2162;DHT22;1087;50.226;8.682;2023-03-03T13:09:38;7.20;99.90
2162;DHT22;1087;50.226;8.682;2023-03-03T13:12:31;7.30;99.90
2162;DHT22;1087;50.226;8.682;2023-03-03T13:15:12;7.30;99.90
2162;DHT22;1087;50.226;8.682;2023-03-03T13:20:33;7.30;99.90
2162;DHT22;1087;50.226;8.682;2023-03-03T13:23:31;7.30;99.90
2162;DHT22;1087;50.226;8.682;2023-03-03T13:31:34;7.30;99.90
2162;DHT22;1087;50.226;8.682;2023-03-03T13:34:01;7.30;99.90
2162;DHT22;1087;50.226;8.682;2023-03-03T13:36:36;7.40;99.90
2162;DHT22;1087;50.226;8.682;2023-03-03T13:39:25;7.50;99.90
2162;DHT22;1087;50.226;8.682;2023-03-03T13:42:03;7.60;99.90
2162;DHT22;1087;50.226;8.682;2023-03-03T13:44:39;7.70;99.90
2162;DHT22;1087;50.226;8.682;2023-03-03T13:47:29;7.80;99.90
2162;DHT22;1087;50.226;8.682;2023-03-03T13:52:32;7.90;99.90
2162;DHT22;1087;50.226;8.682;2023-03-03T13:55:23;7.80;99.90
2162;DHT22;1087;50.226;8.682;2023-03-03T13:58:22;7.80;99.90
2162;DHT22;1087;50.226;8.682;2023-03-03T14:01:13;7.90;99.90
2162;DHT22;1087;50.226;8.682;2023-03-03T14:06:17;7.80;99.90
2162;DHT22;1087;50.226;8.682;2023-03-03T14:11:49;7.90;99.90
2162;DHT22;1087;50.226;8.682;2023-03-03T14:17:28;8.00;99.90
2162;DHT22;1087;50.226;8.682;2023-03-03T14:25:15;7.90;99.90
2162;DHT22;1087;50.226;8.682;2023-03-03T14:35:40;7.90;99.90
2162;DHT22;1087;50.226;8.682;2023-03-03T14:38:14;7.90;99.90
2162;DHT22;1087;50.226;8.682;2023-03-03T14:40:42;7.90;99.90
2162;DHT22;1087;50.226;8.682;2023-03-03T14:43:33;8.00;99.90
2162;DHT22;1087;50.226;8.682;2023-03-03T14:48:59;8.10;99.90
2162;DHT22;1087;50.226;8.682;2023-03-03T14:51:46;8.00;99.90
2162;DHT22;1087;50.226;8.682;2023-03-03T14:54:22;7.90;99.90
2162;DHT22;1087;50.226;8.682;2023-03-03T15:00:05;7.90;99.90
2162;DHT22;1087;50.226;8.682;2023-03-03T15:02:41;7.90;99.90
2162;DHT22;1087;50.226;8.682;2023-03-03T15:05:22;7.80;99.90
2162;DHT22;1087;50.226;8.682;2023-03-03T15:07:54;7.80;99.90
2162;DHT22;1087;50.226;8.682;2023-03-03T15:12:52;7.80;99.90
2162;DHT22;1087;50.226;8.682;2023-03-03T15:15:20;7.80;99.90
2162;DHT22;1087;50.226;8.682;2023-03-03T15:31:55;7.60;99.90
2162;DHT22;1087;50.226;8.682;2023-03-03T15:34:40;7.70;99.90
2162;DHT22;1087;50.226;8.682;2023-03-03T15:42:47;7.60;99.90
2162;DHT22;1087;50.226;8.682;2023-03-03T15:48:29;7.70;99.90
2162;DHT22;1087;50.226;8.682;2023-03-03T15:51:21;7.70;99.90
2162;DHT22;1087;50.226;8.682;2023-03-03T15:54:16;7.80;99.90
2162;DHT22;1087;50.226;8.682;2023-03-03T15:56:53;7.70;99.90
2162;DHT22;1087;50.226;8.682;2023-03-03T15:59:23;7.70;99.90
2162;DHT22;1087;50.226;8.682;2023-03-03T16:04:35;7.80;99.90
2162;DHT22;1087;50.226;8.682;2023-03-03T16:07:50;7.80;99.90
2162;DHT22;1087;50.226;8.682;2023-03-03T16:10:38;7.70;99.90
2162;DHT22;1087;50.226;8.682;2023-03-03T16:18:58;7.60;99.90
2162;DHT22;1087;50.226;8.682;2023-03-03T16:30:23;7.50;99.90
2162;DHT22;1087;50.226;8.682;2023-03-03T16:32:55;7.40;99.90
2162;DHT22;1087;50.226;8.682;2023-03-03T16:35:54;7.50;99.90
2162;DHT22;1087;50.226;8.682;2023-03-03T16:38:42;7.40;99.90
2162;DHT22;1087;50.226;8.682;2023-03-03T16:41:28;7.30;99.90
2162;DHT22;1087;50.226;8.682;2023-03-03T16:44:25;7.40;99.90
2162;DHT22;1087;50.226;8.682;2023-03-03T16:49:52;7.20;99.90
2162;DHT22;1087;50.226;8.682;2023-03-03T16:52:28;7.20;99.90
2162;DHT22;1087;50.226;8.682;2023-03-03T16:54:59;7.20;99.90
2162;DHT22;1087;50.226;8.682;2023-03-03T16:57:42;7.10;99.90
2162;DHT22;1087;50.226;8.682;2023-03-03T17:00:23;7.20;99.90
2162;DHT22;1087;50.226;8.682;2023-03-03T17:05:23;7.20;99.90
2162;DHT22;1087;50.226;8.682;2023-03-03T17:08:22;7.10;99.90
2162;DHT22;1087;50.226;8.682;2023-03-03T17:11:07;7.20;99.90
2162;DHT22;1087;50.226;8.682;2023-03-03T17:16:47;7.20;99.90
2162;DHT22;1087;50.226;8.682;2023-03-03T17:22:18;7.20;99.90
2162;DHT22;1087;50.226;8.682;2023-03-03T17:35:54;6.90;99.90
2162;DHT22;1087;50.226;8.682;2023-03-03T17:44:27;6.80;99.90
2162;DHT22;1087;50.226;8.682;2023-03-03T17:46:31;6.80;99.90
2162;DHT22;1087;50.226;8.682;2023-03-03T17:49:22;6.80;99.90
2162;DHT22;1087;50.226;8.682;2023-03-03T17:52:05;6.60;99.90
2162;DHT22;1087;50.226;8.682;2023-03-03T17:54:59;6.50;99.90
2162;DHT22;1087;50.226;8.682;2023-03-03T17:57:51;6.50;99.90
2162;DHT22;1087;50.226;8.682;2023-03-03T18:01:00;6.50;99.90
2162;DHT22;1087;50.226;8.682;2023-03-03T18:06:48;6.40;99.90
2162;DHT22;1087;50.226;8.682;2023-03-03T18:12:36;6.50;99.90
2162;DHT22;1087;50.226;8.682;2023-03-03T18:17:53;6.70;99.90
2162;DHT22;1087;50.226;8.682;2023-03-03T18:20:42;6.70;99.90
2162;DHT22;1087;50.226;8.682;2023-03-03T18:26:04;6.50;99.90
2162;DHT22;1087;50.226;8.682;2023-03-03T18:28:50;6.40;99.90
2162;DHT22;1087;50.226;8.682;2023-03-03T18:31:22;6.40;99.90
2162;DHT22;1087;50.226;8.682;2023-03-03T18:36:58;6.50;99.90
2162;DHT22;1087;50.226;8.682;2023-03-03T18:44:42;6.50;99.90
2162;DHT22;1087;50.226;8.682;2023-03-03T18:47:09;6.40;99.90
2162;DHT22;1087;50.226;8.682;2023-03-03T18:49:55;6.30;99.90
2162;DHT22;1087;50.226;8.682;2023-03-03T18:52:23;6.40;99.90
2162;DHT22;1087;50.226;8.682;2023-03-03T18:57:36;6.50;99.90
2162;DHT22;1087;50.226;8.682;2023-03-03T19:00:23;6.40;99.90
2162;DHT22;1087;50.226;8.682;2023-03-03T19:02:57;6.40;99.90
2162;DHT22;1087;50.226;8.682;2023-03-03T19:05:45;6.30;99.90
2162;DHT22;1087;50.226;8.682;2023-03-03T19:08:23;6.40;99.90
2162;DHT22;1087;50.226;8.682;2023-03-03T19:11:00;6.30;99.90
2162;DHT22;1087;50.226;8.682;2023-03-03T19:18:28;6.30;99.90
2162;DHT22;1087;50.226;8.682;2023-03-03T19:26:39;6.10;99.90
2162;DHT22;1087;50.226;8.682;2023-03-03T19:44:02;6.00;99.90
2162;DHT22;1087;50.226;8.682;2023-03-03T19:46:51;5.80;99.90
2162;DHT22;1087;50.226;8.682;2023-03-03T19:49:33;5.70;99.90
2162;DHT22;1087;50.226;8.682;2023-03-03T19:52:17;5.70;99.90
2162;DHT22;1087;50.226;8.682;2023-03-03T20:00:22;5.60;99.90
2162;DHT22;1087;50.226;8.682;2023-03-03T20:08:58;5.50;99.90
2162;DHT22;1087;50.226;8.682;2023-03-03T20:14:04;5.50;99.90
2162;DHT22;1087;50.226;8.682;2023-03-03T20:16:39;5.30;99.90
2162;DHT22;1087;50.226;8.682;2023-03-03T20:22:26;5.40;99.90
2162;DHT22;1087;50.226;8.682;2023-03-03T20:28:02;5.40;99.90
2162;DHT22;1087;50.226;8.682;2023-03-03T20:30:58;5.30;99.90
2162;DHT22;1087;50.226;8.682;2023-03-03T20:36:43;5.30;99.90
2162;DHT22;1087;50.226;8.682;2023-03-03T20:50:53;5.20;99.90
2162;DHT22;1087;50.226;8.682;2023-03-03T20:53:49;5.10;99.90
2162;DHT22;1087;50.226;8.682;2023-03-03T20:59:02;4.90;99.90
2162;DHT22;1087;50.226;8.682;2023-03-03T21:01:37;4.90;99.90
2162;DHT22;1087;50.226;8.682;2023-03-03T21:04:27;5.00;99.90
2162;DHT22;1087;50.226;8.682;2023-03-03T21:06:53;5.00;99.90
2162;DHT22;1087;50.226;8.682;2023-03-03T21:11:57;5.00;99.90
2162;DHT22;1087;50.226;8.682;2023-03-03T21:14:28;5.00;99.90
2162;DHT22;1087;50.226;8.682;2023-03-03T21:16:56;5.00;99.90
2162;DHT22;1087;50.226;8.682;2023-03-03T21:19:31;5.00;99.90
2162;DHT22;1087;50.226;8.682;2023-03-03T21:21:58;5.10;99.90
2162;DHT22;1087;50.226;8.682;2023-03-03T21:24:54;5.10;99.90
2162;DHT22;1087;50.226;8.682;2023-03-03T21:27:28;5.10;99.90
2162;DHT22;1087;50.226;8.682;2023-03-03T21:30:20;5.10;99.90
2162;DHT22;1087;50.226;8.682;2023-03-03T21:32:47;5.10;99.90
2162;DHT22;1087;50.226;8.682;2023-03-03T21:35:16;5.20;99.90
2162;DHT22;1087;50.226;8.682;2023-03-03T21:37:50;5.20;99.90
2162;DHT22;1087;50.226;8.682;2023-03-03T21:40:24;5.20;99.90
2162;DHT22;1087;50.226;8.682;2023-03-03T21:42:53;5.20;99.90
2162;DHT22;1087;50.226;8.682;2023-03-03T21:45:19;5.20;99.90
2162;DHT22;1087;50.226;8.682;2023-03-03T21:47:45;5.20;99.90
2162;DHT22;1087;50.226;8.682;2023-03-03T21:50:11;5.20;99.90
2162;DHT22;1087;50.226;8.682;2023-03-03T21:52:37;5.20;99.90
2162;DHT22;1087;50.226;8.682;2023-03-03T21:55:03;5.20;99.90
2162;DHT22;1087;50.226;8.682;2023-03-03T21:57:29;5.20;99.90
2162;DHT22;1087;50.226;8.682;2023-03-03T21:59:55;5.20;99.90
2162;DHT22;1087;50.226;8.682;2023-03-03T22:02:20;5.10;99.90
2162;DHT22;1087;50.226;8.682;2023-03-03T22:04:46;5.10;99.90
2162;DHT22;1087;50.226;8.682;2023-03-03T22:07:11;5.10;99.90
2162;DHT22;1087;50.226;8.682;2023-03-03T22:09:37;5.20;99.90
2162;DHT22;1087;50.226;8.682;2023-03-03T22:12:03;5.20;99.90
2162;DHT22;1087;50.226;8.682;2023-03-03T22:14:29;5.20;99.90
2162;DHT22;1087;50.226;8.682;2023-03-03T22:16:55;5.10;99.90
2162;DHT22;1087;50.226;8.682;2023-03-03T22:19:21;5.10;99.90
2162;DHT22;1087;50.226;8.682;2023-03-03T22:21:47;5.10;99.90
2162;DHT22;1087;50.226;8.682;2023-03-03T22:24:13;5.00;99.90
2162;DHT22;1087;50.226;8.682;2023-03-03T22:26:39;4.80;99.90